• Join FlightAware (Why Join?)
  • Login
  • US Flag 
07:03AM EDT


 

Airport Tracker/Info


-or-


 

Live Flight TrackerFlight Track Log ✈ PCO452 ✈ 01-May-2013 ✈ CAD4 / YZZ - CYVR

Flight Track Log - Related Links

Times and Time Zones

All times are in EDT time to prevent confusion due to time zone crossing. See the PCO452 flight status page for this flight to view local times or setup timezone preferences in your user account.

Time Position Orientation Groundspeed Altitude Reporting Facility
EDT Latitude Longitude Course Direction KTS MPH feet Rate Location/Type
01:04PM 49.1167 -117.9000 287° West 170 196 11,500  Level Vancouver Center
01:05PM 49.1333 -117.9833 287° West 180 207 13,600 1,800 Climbing Vancouver Center
01:06PM 49.1500 -118.0500 291° West 190 219 15,200 1,560 Climbing Vancouver Center
01:07PM 49.1333 -118.1667 258° West 200 230 16,800 1,440 Climbing Vancouver Center
01:08PM 49.1500 -118.2333 291° West 190 219 18,100 900 Climbing Vancouver Center
01:09PM 49.1500 -118.3167 270° West 190 219 18,600 780 Climbing Vancouver Center
01:10PM 49.1667 -118.3833 291° West 180 207 19,700 660 Climbing Vancouver Center
01:11PM 49.1833 -118.4667 287° West 190 219 20,000 120 Climbing Vancouver Center
01:12PM 49.1833 -118.5667 270° West 210 242 20,000  Level Vancouver Center
01:13PM 49.2000 -118.6333 291° West 220 253 20,000  Level Vancouver Center
01:14PM 49.2167 -118.7333 284° West 220 253 20,000  Level Vancouver Center
01:15PM 49.2167 -118.8333 270° West 230 265 20,000  Level Vancouver Center
01:16PM 49.2333 -118.9333 284° West 230 265 20,000  Level Vancouver Center
01:17PM 49.2333 -119.0167 270° West 230 265 20,000  Level Vancouver Center
01:18PM 49.2500 -119.1167 284° West 230 265 20,000  Level Vancouver Center
01:19PM 49.2667 -119.2167 284° West 230 265 20,000  Level Vancouver Center
01:20PM 49.2667 -119.3167 270° West 230 265 20,000  Level Vancouver Center
01:21PM 49.2667 -119.4167 270° West 230 265 20,000  Level Vancouver Center
01:22PM 49.2833 -119.5000 287° West 230 265 20,000  Level Vancouver Center
01:23PM 49.3000 -119.6000 284° West 230 265 20,000  Level Vancouver Center
01:24PM 49.3000 -119.7000 270° West 230 265 20,000  Level Vancouver Center
01:25PM 49.3167 -119.7833 287° West 230 265 20,000  Level Vancouver Center
01:26PM 49.3167 -119.8833 270° West 230 265 20,000  Level Vancouver Center
01:27PM 49.3333 -119.9833 284° West 230 265 20,000  Level Vancouver Center
01:28PM 49.3500 -120.0833 284° West 230 265 20,000  Level Vancouver Center
01:29PM 49.3500 -120.1833 270° West 230 265 20,000  Level Vancouver Center
01:30PM 49.3667 -120.2667 287° West 230 265 20,000  Level Vancouver Center
01:31PM 49.3667 -120.3667 270° West 230 265 20,000  Level Vancouver Center
01:32PM 49.3667 -120.4667 270° West 230 265 20,000  Level Vancouver Center
01:33PM 49.3833 -120.5667 284° West 230 265 20,000  Level Vancouver Center
01:34PM 49.4000 -120.6500 287° West 230 265 20,000  Level Vancouver Center
01:35PM 49.4000 -120.7500 270° West 230 265 20,000  Level Vancouver Center
01:36PM 49.4167 -120.8500 284° West 230 265 20,000  Level Vancouver Center
01:37PM 49.4167 -120.9500 270° West 240 276 20,000  Level Vancouver Center
01:38PM 49.4333 -121.0500 284° West 230 265 20,000  Level Vancouver Center
01:39PM 49.4333 -121.1500 270° West 230 265 20,000  Level Vancouver Center
01:40PM 49.4500 -121.2500 284° West 230 265 20,000 -300 Level Vancouver Center
01:41PM 49.4500 -121.3333 270° West 230 265 19,500 -840 Descending Vancouver Center
01:42PM 49.4667 -121.4667 281° West 250 288 18,400 -900 Descending Vancouver Center
01:43PM 49.4667 -121.5667 270° West 260 299 17,800 -960 Descending Vancouver Center
01:45PM 49.4833 -121.8000 276° West 270 311 15,600 -1,140 Descending Vancouver Center
01:46PM 49.4833 -121.9167 270° West 270 311 14,500 -1,200 Descending Vancouver Center
01:47PM 49.5000 -122.0333 282° West 270 311 13,200 -1,200 Descending Vancouver Center
01:48PM 49.4667 -122.1333 243° Southwest 280 322 12,100 -1,260 Descending Vancouver Center
01:49PM 49.4333 -122.2333 243° Southwest 280 322 10,700 -1,080 Descending Vancouver Center
01:50PM 49.4000 -122.3333 243° Southwest 280 322 10,000 -360 Descending Vancouver Center
01:51PM 49.3500 -122.4333 233° Southwest 260 299 10,000  Level Vancouver Center
01:52PM 49.3167 -122.5167 238° Southwest 250 288 10,000  Level Vancouver Center
01:53PM 49.2833 -122.6167 243° Southwest 250 288 10,000  Level Vancouver Center
01:54PM 49.2500 -122.7333 246° West 240 276 10,000  Level Vancouver Center
01:55PM 49.2333 -122.8000 249° West 240 276 10,000  Level Vancouver Center
01:56PM 49.2333 -122.9000 270° West 240 276 10,000  Level Vancouver Center
01:57PM 49.2333 -123.0000 270° West 240 276 10,000 -300 Level Vancouver Center
01:58PM 49.2500 -123.1167 282° West 230 265 9,400 -1,140 Descending Vancouver Center
01:59PM 49.2500 -123.2167 270° West 220 253 7,800 -1,680 Descending Vancouver Center
02:00PM 49.2167 -123.2667 224° Southwest 220 253 6,100 -1,800 Descending Vancouver Center
02:01PM 49.1667 -123.3167 213° Southwest 210 242 4,300 -1,740 Descending Vancouver Center
02:02PM 49.1333 -123.3667 224° Southwest 200 230 2,700 -1,140 Descending Vancouver Center
02:03PM 49.1667 -123.3333 33° Northeast 170 196 2,100 -720 Descending Vancouver Center
02:04PM 49.1833 -123.2833 63° Northeast 150 173 1,300 -840 Descending Vancouver Center
02:05PM 49.1667 -123.2333 117° Southeast 140 161 500 -840 Descending Vancouver Center